createdAt,value
2023-10-11T03:41:30.805Z,10.01
2023-10-11T03:44:41.190Z,10.01
2023-10-11T03:47:44.860Z,9.59
2023-10-11T03:50:53.925Z,9.74
2023-10-11T03:53:57.112Z,9.73
2023-10-11T03:57:05.219Z,9.75
2023-10-11T04:00:24.714Z,9.83
2023-10-11T04:03:28.784Z,9.96
2023-10-11T04:06:31.701Z,9.97
2023-10-11T04:09:37.647Z,9.88
2023-10-11T04:12:43.667Z,9.78
2023-10-11T04:15:50.952Z,9.75
2023-10-11T04:18:54.045Z,9.63
2023-10-11T04:21:57.446Z,9.57
2023-10-11T04:25:08.102Z,9.51
2023-10-11T04:28:14.162Z,9.58
2023-10-11T04:31:29.987Z,9.62
2023-10-11T04:34:33.514Z,9.70
2023-10-11T04:37:45.202Z,9.75
2023-10-11T04:40:52.990Z,9.93
2023-10-11T04:44:06.017Z,10.01
2023-10-11T04:47:13.062Z,10.11
2023-10-11T04:50:15.943Z,10.21
2023-10-11T04:53:19.581Z,10.33
2023-10-11T04:56:44.804Z,10.39
2023-10-11T04:59:55.258Z,10.47
2023-10-11T05:03:03.949Z,10.49
2023-10-11T05:06:21.453Z,10.53
2023-10-11T05:09:39.139Z,10.60
2023-10-11T05:12:44.891Z,10.57
2023-10-11T05:15:50.519Z,10.65
2023-10-11T05:18:53.672Z,10.73
2023-10-11T05:22:04.199Z,10.79
2023-10-11T05:25:28.610Z,10.80
2023-10-11T05:28:45.596Z,10.87
2023-10-11T05:32:06.346Z,11.00
2023-10-11T05:35:28.085Z,11.16
2023-10-11T05:38:50.175Z,11.22
2023-10-11T05:42:11.743Z,11.28
2023-10-11T05:45:33.476Z,11.38
2023-10-11T05:48:54.969Z,11.46
2023-10-11T05:51:57.997Z,11.60
2023-10-11T05:55:00.744Z,11.66
2023-10-11T05:58:05.753Z,11.83
2023-10-11T06:01:14.990Z,11.90
2023-10-11T06:04:18.393Z,11.97
2023-10-11T06:07:22.394Z,12.07
2023-10-11T06:10:30.897Z,12.19
2023-10-11T06:13:33.747Z,12.25
2023-10-11T06:16:39.759Z,12.09
2023-10-11T06:19:51.921Z,12.18
2023-10-11T06:23:03.453Z,12.28
2023-10-11T06:26:26.418Z,12.39
2023-10-11T06:29:31.031Z,12.47
2023-10-11T06:32:37.279Z,12.54
2023-10-11T06:35:50.514Z,12.53
2023-10-11T06:38:56.216Z,12.57
2023-10-11T06:42:00.833Z,12.61
2023-10-11T06:45:06.682Z,12.62
2023-10-11T06:48:14.659Z,12.69
2023-10-11T06:51:17.553Z,12.73
2023-10-11T06:54:25.025Z,12.79
2023-10-11T06:57:27.843Z,12.77
2023-10-11T07:00:38.229Z,12.81
2023-10-11T07:03:41.476Z,12.91
2023-10-11T07:06:47.410Z,13.16
2023-10-11T07:09:59.340Z,13.42
2023-10-11T07:13:06.544Z,13.68
2023-10-11T07:16:09.947Z,14.30
2023-10-11T07:19:17.045Z,14.73
2023-10-11T07:22:20.158Z,14.73
2023-10-11T07:25:38.645Z,14.62
2023-10-11T07:28:42.883Z,14.90
2023-10-11T07:31:52.526Z,14.99
2023-10-11T07:34:56.395Z,15.03
2023-10-11T07:38:01.846Z,15.10
2023-10-11T07:41:06.893Z,15.12
2023-10-11T07:44:11.669Z,15.16
2023-10-11T07:47:17.508Z,15.09
2023-10-11T07:50:23.885Z,15.06
2023-10-11T07:53:27.338Z,15.15
2023-10-11T07:56:30.371Z,15.12
2023-10-11T07:59:33.227Z,15.01
2023-10-11T08:02:43.373Z,15.04
2023-10-11T08:05:47.140Z,15.02
2023-10-11T08:08:50.152Z,15.07
2023-10-11T08:12:01.225Z,15.25
2023-10-11T08:15:05.742Z,15.39
2023-10-11T08:18:09.047Z,15.49
2023-10-11T08:21:11.786Z,15.56
2023-10-11T08:24:18.331Z,15.56
2023-10-11T08:27:39.834Z,15.51
2023-10-11T08:30:47.652Z,15.59
2023-10-11T08:33:54.050Z,15.66
2023-10-11T08:36:57.801Z,15.53
2023-10-11T08:40:00.705Z,15.78
2023-10-11T08:43:04.087Z,15.69
2023-10-11T08:46:10.235Z,15.53
2023-10-11T08:49:15.972Z,15.64
2023-10-11T08:52:26.001Z,15.84
2023-10-11T08:55:29.498Z,16.16
2023-10-11T08:58:32.122Z,16.48
2023-10-11T09:01:38.276Z,16.82
2023-10-11T09:05:29.867Z,16.98
2023-10-11T09:08:34.814Z,17.21
2023-10-11T09:11:40.098Z,17.58
2023-10-11T09:14:55.388Z,17.58
2023-10-11T09:18:17.743Z,17.09
2023-10-11T09:21:25.593Z,16.70
2023-10-11T09:24:46.173Z,16.76
2023-10-11T09:27:50.658Z,16.80
2023-10-11T09:31:16.640Z,16.74
2023-10-11T09:34:20.322Z,16.83
2023-10-11T09:37:22.917Z,17.05
2023-10-11T09:40:32.455Z,17.32
2023-10-11T09:43:46.252Z,17.06
2023-10-11T09:46:51.437Z,17.21
2023-10-11T09:49:55.771Z,17.43
2023-10-11T09:53:01.909Z,17.64
2023-10-11T09:56:16.487Z,17.85
2023-10-11T09:59:38.605Z,17.96
2023-10-11T10:02:48.376Z,18.06
2023-10-11T10:06:21.846Z,18.27
2023-10-11T10:09:25.147Z,18.49
2023-10-11T10:12:41.526Z,18.37
2023-10-11T10:15:49.268Z,18.21
2023-10-11T10:19:24.584Z,18.27
2023-10-11T10:22:33.980Z,18.47
2023-10-11T10:25:37.070Z,18.66
2023-10-11T10:28:40.638Z,18.82
2023-10-11T10:32:05.235Z,18.79
2023-10-11T10:35:20.263Z,18.95
2023-10-11T10:38:24.689Z,19.03
2023-10-11T10:41:31.282Z,19.20
2023-10-11T10:44:45.414Z,19.37
2023-10-11T10:47:50.619Z,19.53
2023-10-11T10:51:03.042Z,19.76
2023-10-11T10:54:14.453Z,19.99
2023-10-11T10:57:24.554Z,20.02
2023-10-11T11:00:32.038Z,20.14
2023-10-11T11:03:37.215Z,20.28
2023-10-11T11:06:46.101Z,20.42
2023-10-11T11:09:51.269Z,20.48
2023-10-11T11:12:54.262Z,20.53
2023-10-11T11:15:57.631Z,20.55
2023-10-11T11:19:18.162Z,20.61
2023-10-11T11:22:23.270Z,20.81
2023-10-11T11:25:26.089Z,20.74
2023-10-11T11:28:30.790Z,20.90
2023-10-11T11:31:58.560Z,21.12
2023-10-11T11:35:11.014Z,21.32
2023-10-11T11:38:22.292Z,21.49
2023-10-11T11:41:28.716Z,21.66
2023-10-11T11:44:32.711Z,21.75
2023-10-11T11:47:36.246Z,22.02
2023-10-11T11:50:40.293Z,22.14
2023-10-11T11:53:46.797Z,22.20
2023-10-11T11:56:55.698Z,22.29
2023-10-11T11:59:59.412Z,22.42
2023-10-11T12:03:06.230Z,22.45
2023-10-11T12:06:23.615Z,22.76
2023-10-11T12:09:47.573Z,22.97
2023-10-11T12:12:55.862Z,22.96
2023-10-11T12:15:58.467Z,23.24
2023-10-11T12:19:01.878Z,23.20
2023-10-11T12:22:05.282Z,23.49
2023-10-11T12:25:08.799Z,23.80
2023-10-11T12:28:14.505Z,24.16
2023-10-11T12:31:20.552Z,24.25
2023-10-11T12:34:26.226Z,24.41
2023-10-11T12:37:30.311Z,24.46
2023-10-11T12:40:35.759Z,24.61
2023-10-11T12:43:38.727Z,24.67
2023-10-11T12:46:41.498Z,24.84
2023-10-11T12:49:46.119Z,24.88
2023-10-11T12:52:53.977Z,25.07
2023-10-11T12:55:57.123Z,25.28
2023-10-11T12:58:59.720Z,25.88
2023-10-11T13:02:05.292Z,27.07
2023-10-11T13:05:09.126Z,28.75
2023-10-11T13:08:12.895Z,30.82
2023-10-11T13:11:19.701Z,33.14
2023-10-11T13:14:23.151Z,35.08
2023-10-11T13:17:29.315Z,36.61
2023-10-11T13:20:32.874Z,36.38
2023-10-11T13:23:36.184Z,38.25
2023-10-11T13:26:44.999Z,39.85
2023-10-11T13:29:48.302Z,39.73
2023-10-11T13:32:58.934Z,39.48
2023-10-11T13:36:03.595Z,38.56
2023-10-11T13:39:17.337Z,38.59
2023-10-11T13:42:20.412Z,39.56
2023-10-11T13:45:23.332Z,40.29
2023-10-11T13:48:42.227Z,40.59
2023-10-11T13:51:45.458Z,40.56
2023-10-11T13:54:53.010Z,41.32
2023-10-11T13:57:57.026Z,41.23
2023-10-11T14:00:59.916Z,39.94
2023-10-11T14:04:15.947Z,39.50
2023-10-11T14:07:28.782Z,39.89
2023-10-11T14:10:37.402Z,39.83
2023-10-11T14:13:40.382Z,40.07
2023-10-11T14:16:43.703Z,41.20
2023-10-11T14:19:47.303Z,41.38
2023-10-11T14:22:51.726Z,41.57
2023-10-11T14:25:57.108Z,41.98
2023-10-11T14:29:00.612Z,41.32
2023-10-11T14:32:03.463Z,39.71
2023-10-11T14:35:10.259Z,38.80
2023-10-11T14:38:15.683Z,37.51
2023-10-11T14:41:22.815Z,35.62
2023-10-11T14:44:26.122Z,33.63
2023-10-11T14:47:29.199Z,31.46
2023-10-11T14:50:35.726Z,29.72
2023-10-11T14:53:38.841Z,28.99
2023-10-11T14:56:41.759Z,28.33
2023-10-11T14:59:44.674Z,27.41
2023-10-11T15:02:47.692Z,26.34
2023-10-11T15:05:50.915Z,25.86
2023-10-11T15:08:55.214Z,25.02
2023-10-11T15:11:58.381Z,24.68
2023-10-11T15:15:01.078Z,24.17
2023-10-11T15:18:04.765Z,23.88
2023-10-11T15:21:07.992Z,23.52
2023-10-11T15:24:14.523Z,23.21
2023-10-11T15:27:17.504Z,23.08
2023-10-11T15:30:23.122Z,22.71
2023-10-11T15:33:26.196Z,22.40
2023-10-11T15:36:29.844Z,22.11
2023-10-11T15:39:32.727Z,21.95
2023-10-11T15:42:35.964Z,21.67
2023-10-11T15:45:38.886Z,21.43
2023-10-11T15:48:42.003Z,21.17
2023-10-11T15:51:45.074Z,20.99
2023-10-11T15:54:48.319Z,20.90
2023-10-11T15:57:51.358Z,20.65
2023-10-11T16:00:54.792Z,20.51
2023-10-11T16:03:57.829Z,20.47
2023-10-11T16:07:00.569Z,20.33
2023-10-11T16:10:03.663Z,20.14
2023-10-11T16:13:07.978Z,19.92
2023-10-11T16:16:12.871Z,19.82
2023-10-11T16:19:16.490Z,19.85
